Caete, Brazil
Current Conditions -  °F | °C
As of 7:00 PM on Saturday 20 Dec 2014 (Local Time) from SBCF Reporting Station
Scattered Clouds Scattered Clouds  
Wind Chill: 79°   Ceiling: Unl
Heat Index: 81°   Visibility: 6mi
Dew Point: 64°   Wind: 3mph
Humidity: 61%   Direction: 230°SW
Pressure: 29.94"   Gusts: NA
Location:  19.88°S, 43.68°W
Report Text: SBCF 202100Z 23003KT 9999 FEW045 SCT100 26/18 Q1014
Loading
Personal Weather Stations






























Interactive Weather Map New forecast layout! Learn more

10-Day Weather Forecast

Advertisements
Track Severe Weather on mobile